createdAt,value
2023-03-16T11:50:03.991Z,1011.18
2023-03-16T11:50:37.548Z,1011.22
2023-03-16T11:51:47.980Z,1011.20
2023-03-16T11:51:55.815Z,1011.22
2023-03-16T11:52:25.395Z,1011.20
2023-03-16T11:52:56.714Z,1011.17
2023-03-16T11:53:26.453Z,1011.19
2023-03-16T11:53:54.908Z,1011.16
2023-03-16T11:54:24.794Z,1011.16
2023-03-16T11:54:54.804Z,1011.18
2023-03-16T11:55:24.025Z,1011.16
2023-03-16T11:55:54.514Z,1011.11
2023-03-16T11:56:24.370Z,1011.20
2023-03-16T11:56:53.670Z,1011.14
2023-03-16T11:57:24.857Z,1011.11
2023-03-16T11:57:54.451Z,1011.08
2023-03-16T11:58:23.360Z,1011.14
2023-03-16T11:58:54.376Z,1011.09
2023-03-16T11:59:24.863Z,1011.11
2023-03-16T12:00:01.992Z,1011.07
2023-03-16T12:00:27.678Z,1011.09
2023-03-16T12:00:53.357Z,1011.11
2023-03-16T12:01:25.238Z,1011.11
2023-03-16T12:02:00.266Z,1011.13
2023-03-16T12:02:24.990Z,1011.08
2023-03-16T12:02:55.996Z,1011.08
2023-03-16T12:03:23.567Z,1011.05
2023-03-16T12:03:55.856Z,1010.98
2023-03-16T12:04:24.450Z,1011.05
2023-03-16T12:04:54.802Z,1011.04
2023-03-16T12:05:24.749Z,1010.99
2023-03-16T12:05:54.145Z,1011.01
2023-03-16T12:06:24.445Z,1011.00
2023-03-16T12:06:56.343Z,1010.97
2023-03-16T12:07:26.659Z,1010.95
2023-03-16T12:07:55.147Z,1010.97
2023-03-16T12:08:26.287Z,1010.95
2023-03-16T12:08:54.664Z,1010.98
2023-03-16T12:09:24.329Z,1010.95
2023-03-16T12:09:56.535Z,1010.91
2023-03-16T12:10:27.207Z,1010.93
2023-03-16T12:10:54.884Z,1010.91
2023-03-16T12:11:26.649Z,1010.88
2023-03-16T12:11:54.984Z,1010.91
2023-03-16T12:12:26.289Z,1010.89
2023-03-16T12:12:55.283Z,1010.88
2023-03-16T12:13:29.255Z,1010.86
2023-03-16T12:13:54.793Z,1010.83
2023-03-16T12:14:23.187Z,1010.83
2023-03-16T12:14:55.431Z,1010.83
2023-03-16T12:15:24.798Z,1010.79
2023-03-16T12:15:57.080Z,1010.78
2023-03-16T12:16:23.701Z,1010.76
2023-03-16T12:16:56.452Z,1010.74
2023-03-16T12:17:24.378Z,1010.77
2023-03-16T12:17:54.913Z,1010.73
2023-03-16T12:18:23.492Z,1010.73
2023-03-16T12:18:53.231Z,1010.68
2023-03-16T12:19:25.826Z,1010.69
2023-03-16T12:19:53.110Z,1010.70
2023-03-16T12:20:26.373Z,1010.70
2023-03-16T12:20:56.280Z,1010.65
2023-03-16T12:21:23.188Z,1010.68
2023-03-16T12:21:55.721Z,1010.67
2023-03-16T12:22:26.351Z,1010.65
2023-03-16T12:22:55.334Z,1010.65
2023-03-16T12:23:23.596Z,1010.66
2023-03-16T12:23:55.151Z,1010.61
